createdAt,value
2023-03-21T00:02:12.527Z,1.13
2023-03-21T00:04:51.354Z,1.13
2023-03-21T00:07:22.547Z,1.10
2023-03-21T00:09:52.428Z,1.47
2023-03-21T00:12:21.201Z,1.57
2023-03-21T00:14:49.644Z,0.87
2023-03-21T00:17:18.378Z,0.73
2023-03-21T00:19:46.972Z,1.13
2023-03-21T00:22:15.528Z,1.00
2023-03-21T00:24:45.534Z,0.97
2023-03-21T00:27:42.598Z,1.07
2023-03-21T00:30:04.624Z,0.60
2023-03-21T00:32:35.661Z,1.03
2023-03-21T00:35:51.252Z,0.93
2023-03-21T00:37:57.332Z,1.20
2023-03-21T00:40:33.140Z,0.90
2023-03-21T00:43:03.891Z,0.83
2023-03-21T00:45:32.509Z,1.23
2023-03-21T00:48:01.119Z,0.80
2023-03-21T00:50:29.628Z,1.10
2023-03-21T00:52:57.980Z,0.80
2023-03-21T00:55:28.086Z,0.73
2023-03-21T00:58:02.064Z,0.93
2023-03-21T01:00:31.088Z,1.13
2023-03-21T01:03:17.731Z,0.77
2023-03-21T01:06:05.602Z,0.77
2023-03-21T01:08:48.648Z,0.70
2023-03-21T01:11:22.632Z,0.77
2023-03-21T01:14:07.678Z,0.80
2023-03-21T01:16:40.073Z,0.87
2023-03-21T01:19:22.144Z,0.97
2023-03-21T01:21:52.812Z,0.87
2023-03-21T01:24:21.337Z,0.80
2023-03-21T01:26:51.375Z,1.17
2023-03-21T01:29:19.924Z,0.97
2023-03-21T01:31:48.574Z,0.80
2023-03-21T01:34:16.995Z,1.40
2023-03-21T01:36:45.483Z,1.20
2023-03-21T01:39:13.813Z,1.03
2023-03-21T01:41:44.524Z,0.93
2023-03-21T01:44:17.274Z,1.20
2023-03-21T01:47:00.456Z,0.83
2023-03-21T01:49:38.780Z,0.97
2023-03-21T01:52:14.042Z,1.10
2023-03-21T01:54:44.878Z,1.13
2023-03-21T01:57:16.494Z,0.80
2023-03-21T01:59:50.103Z,0.90
2023-03-21T02:02:20.727Z,0.87
2023-03-21T02:04:51.151Z,1.57
2023-03-21T02:07:23.037Z,1.43
2023-03-21T02:09:52.090Z,1.47
2023-03-21T02:12:20.629Z,0.83
2023-03-21T02:14:50.854Z,0.80
2023-03-21T02:17:22.233Z,1.00
2023-03-21T02:20:11.984Z,1.23
2023-03-21T02:22:53.818Z,0.90
2023-03-21T02:25:40.118Z,1.10
2023-03-21T02:28:11.555Z,0.90
2023-03-21T02:30:58.376Z,1.30
2023-03-21T02:33:39.845Z,1.60
2023-03-21T02:36:19.218Z,0.90
2023-03-21T02:38:53.886Z,0.87
2023-03-21T02:41:27.471Z,1.30
2023-03-21T02:44:01.232Z,1.00
2023-03-21T02:46:43.937Z,1.17
2023-03-21T02:49:18.105Z,1.13
2023-03-21T02:51:47.216Z,0.97
2023-03-21T02:54:46.994Z,0.97
2023-03-21T02:57:16.757Z,1.00
2023-03-21T02:59:54.362Z,0.80
2023-03-21T03:02:27.159Z,1.23
2023-03-21T03:04:55.684Z,0.90
2023-03-21T03:07:33.798Z,1.50
2023-03-21T03:10:13.917Z,1.10
2023-03-21T03:12:47.714Z,1.00
2023-03-21T03:15:22.170Z,0.93
2023-03-21T03:17:53.708Z,1.00
2023-03-21T03:20:32.044Z,1.00
2023-03-21T03:23:06.093Z,1.10
2023-03-21T03:25:43.165Z,1.27
2023-03-21T03:28:13.269Z,1.80
2023-03-21T03:30:53.964Z,1.33
2023-03-21T03:33:27.056Z,1.30
2023-03-21T03:36:05.016Z,1.20
2023-03-21T03:38:36.218Z,1.37
2023-03-21T03:41:11.075Z,1.17
2023-03-21T03:43:42.540Z,1.47
2023-03-21T03:46:12.958Z,1.50
2023-03-21T03:48:46.764Z,1.60
2023-03-21T03:51:17.812Z,1.27
2023-03-21T03:53:48.245Z,1.00
2023-03-21T03:56:18.239Z,1.80
2023-03-21T03:58:46.650Z,1.40
2023-03-21T04:01:15.391Z,1.33
2023-03-21T04:04:01.021Z,1.00
2023-03-21T04:06:33.209Z,1.27
2023-03-21T04:09:07.896Z,1.23
2023-03-21T04:11:43.544Z,1.70
2023-03-21T04:14:11.906Z,1.20
2023-03-21T04:16:40.292Z,1.10
2023-03-21T04:19:09.382Z,1.00
2023-03-21T04:21:37.894Z,1.50
2023-03-21T04:24:07.844Z,1.80
2023-03-21T04:26:36.360Z,1.70
2023-03-21T04:29:06.235Z,1.80
2023-03-21T04:31:36.072Z,2.20
2023-03-21T04:34:09.636Z,1.60
2023-03-21T04:36:42.981Z,1.37
2023-03-21T04:39:13.320Z,1.27
2023-03-21T04:41:41.976Z,1.07
2023-03-21T04:44:12.889Z,1.30
2023-03-21T04:46:41.574Z,1.73
2023-03-21T04:49:09.856Z,1.73
2023-03-21T04:51:38.855Z,2.10
2023-03-21T04:54:12.344Z,1.37
2023-03-21T04:56:41.132Z,1.50
2023-03-21T04:59:10.746Z,1.53
2023-03-21T05:01:50.984Z,1.20
2023-03-21T05:04:19.656Z,1.30
2023-03-21T05:06:48.146Z,1.57
2023-03-21T05:09:16.467Z,1.70
2023-03-21T05:11:45.473Z,1.13
2023-03-21T05:14:15.849Z,1.60
2023-03-21T05:16:48.746Z,1.57
2023-03-21T05:19:20.671Z,1.90
2023-03-21T05:21:49.093Z,1.93
2023-03-21T05:24:19.316Z,1.60
2023-03-21T05:26:50.710Z,1.57
2023-03-21T05:29:19.745Z,1.40
2023-03-21T05:31:48.256Z,1.83
2023-03-21T05:34:16.942Z,1.40
2023-03-21T05:36:46.670Z,2.20
2023-03-21T05:39:15.149Z,1.20
2023-03-21T05:41:43.861Z,1.93
2023-03-21T05:44:13.611Z,1.27
2023-03-21T05:46:43.443Z,1.60
2023-03-21T05:49:12.601Z,1.27
2023-03-21T05:51:41.273Z,1.13
2023-03-21T05:54:16.833Z,1.43
2023-03-21T05:56:45.474Z,1.50
2023-03-21T05:59:14.063Z,1.13
2023-03-21T06:01:42.569Z,1.30
2023-03-21T06:04:11.348Z,1.50
2023-03-21T06:06:40.042Z,1.07
2023-03-21T06:09:08.502Z,1.23
2023-03-21T06:11:39.510Z,1.60
2023-03-21T06:14:07.978Z,1.17
2023-03-21T06:16:36.348Z,1.30
2023-03-21T06:19:04.875Z,1.30
2023-03-21T06:21:33.364Z,2.17
2023-03-21T06:24:01.998Z,1.70
2023-03-21T06:26:30.568Z,1.97
2023-03-21T06:29:00.862Z,1.77
2023-03-21T06:31:29.344Z,1.40
2023-03-21T06:33:57.785Z,1.73
2023-03-21T06:36:26.307Z,1.87
2023-03-21T06:38:54.961Z,1.77
2023-03-21T06:41:23.370Z,2.10
2023-03-21T06:43:51.769Z,1.87
2023-03-21T06:46:21.664Z,2.27
2023-03-21T06:48:50.009Z,1.90
2023-03-21T06:51:18.606Z,1.87
2023-03-21T06:53:46.982Z,1.77
2023-03-21T06:56:16.022Z,1.90
2023-03-21T06:58:44.437Z,1.83
2023-03-21T07:01:14.728Z,1.33
2023-03-21T07:03:44.610Z,2.37
2023-03-21T07:06:13.576Z,2.10
2023-03-21T07:08:42.045Z,2.30
2023-03-21T07:11:11.458Z,1.80
2023-03-21T07:13:39.797Z,1.50
2023-03-21T07:16:08.863Z,1.60
2023-03-21T07:18:37.266Z,1.67
2023-03-21T07:21:07.321Z,1.60
2023-03-21T07:23:36.041Z,1.60
2023-03-21T07:26:04.527Z,2.20
2023-03-21T07:28:33.609Z,1.90
2023-03-21T07:31:04.148Z,1.17
2023-03-21T07:33:33.686Z,2.23
2023-03-21T07:36:02.608Z,1.73
2023-03-21T07:38:39.710Z,2.47
2023-03-21T07:41:08.519Z,1.90
2023-03-21T07:43:39.409Z,2.20
2023-03-21T07:46:08.483Z,1.50
2023-03-21T07:48:38.497Z,2.30
2023-03-21T07:51:07.181Z,1.70
2023-03-21T07:53:39.265Z,2.17
2023-03-21T07:56:09.727Z,1.73
2023-03-21T07:58:40.445Z,2.40
2023-03-21T08:01:10.823Z,1.70
2023-03-21T08:03:42.637Z,2.50
2023-03-21T08:06:11.693Z,1.97
2023-03-21T08:08:40.094Z,1.60
2023-03-21T08:11:10.632Z,1.70
2023-03-21T08:13:43.316Z,1.80
2023-03-21T08:16:13.214Z,2.17
2023-03-21T08:18:42.833Z,2.20
2023-03-21T08:21:11.232Z,2.40
2023-03-21T08:23:40.117Z,1.63
2023-03-21T08:26:10.652Z,2.20
2023-03-21T08:28:41.664Z,2.30
2023-03-21T08:31:10.718Z,2.53
2023-03-21T08:33:42.075Z,2.50
2023-03-21T08:36:12.418Z,1.83
2023-03-21T08:38:40.877Z,2.07
2023-03-21T08:41:11.953Z,2.30
2023-03-21T08:43:40.363Z,2.10
2023-03-21T08:46:09.299Z,1.97
2023-03-21T08:48:38.821Z,2.23
2023-03-21T08:51:07.496Z,2.17
2023-03-21T08:53:36.257Z,2.67
2023-03-21T08:56:08.095Z,2.50
2023-03-21T08:58:38.138Z,2.00
2023-03-21T09:01:07.072Z,2.40
2023-03-21T09:03:35.558Z,1.80
2023-03-21T09:06:04.163Z,3.40
2023-03-21T09:08:32.924Z,1.83
2023-03-21T09:11:01.504Z,2.13
2023-03-21T09:13:29.954Z,2.40
2023-03-21T09:16:01.426Z,2.90
2023-03-21T09:18:44.918Z,2.20
2023-03-21T09:21:15.465Z,2.07
2023-03-21T09:23:44.856Z,2.80
2023-03-21T09:26:13.965Z,2.00
2023-03-21T09:28:43.134Z,2.40
2023-03-21T09:31:16.736Z,3.30
2023-03-21T09:33:45.960Z,2.50
2023-03-21T09:36:15.447Z,1.90
2023-03-21T09:38:45.706Z,2.53
2023-03-21T09:41:22.641Z,2.17
2023-03-21T09:43:56.870Z,1.60
2023-03-21T09:46:31.838Z,2.30
2023-03-21T09:49:03.910Z,2.43
2023-03-21T09:51:35.218Z,2.10
2023-03-21T09:54:09.237Z,1.30
2023-03-21T09:56:38.591Z,1.63
2023-03-21T09:59:08.922Z,1.43
2023-03-21T10:01:45.473Z,1.50
2023-03-21T10:04:18.930Z,1.60
2023-03-21T10:06:52.108Z,1.10
2023-03-21T10:09:23.545Z,1.80
2023-03-21T10:11:53.744Z,1.60
2023-03-21T10:14:27.314Z,2.10
2023-03-21T10:16:59.588Z,1.60
2023-03-21T10:19:30.243Z,1.87
2023-03-21T10:22:02.190Z,1.70
2023-03-21T10:24:33.574Z,1.80
2023-03-21T10:27:03.552Z,1.60
2023-03-21T10:29:37.089Z,1.63
2023-03-21T10:32:07.986Z,1.30
2023-03-21T10:34:38.794Z,1.63
2023-03-21T10:37:07.346Z,2.03
2023-03-21T10:39:37.857Z,2.43
2023-03-21T10:42:06.743Z,1.83
2023-03-21T10:44:36.143Z,1.23
2023-03-21T10:47:08.293Z,1.57
2023-03-21T10:50:05.695Z,2.07
2023-03-21T10:52:29.354Z,1.23
2023-03-21T10:55:07.203Z,1.50
2023-03-21T10:57:38.733Z,1.47
2023-03-21T11:00:15.099Z,1.87
2023-03-21T11:02:45.708Z,1.53
2023-03-21T11:05:22.680Z,1.30
2023-03-21T11:07:58.532Z,1.33
2023-03-21T11:10:30.156Z,1.60
2023-03-21T11:13:02.868Z,1.37
2023-03-21T11:15:35.541Z,1.60
2023-03-21T11:18:16.400Z,1.97
2023-03-21T11:20:46.864Z,1.80
2023-03-21T11:23:15.604Z,1.10
2023-03-21T11:25:44.368Z,1.47
2023-03-21T11:28:15.873Z,1.90
2023-03-21T11:30:52.013Z,1.20
2023-03-21T11:33:22.833Z,1.53
2023-03-21T11:36:01.606Z,1.23
2023-03-21T11:38:32.149Z,1.20
2023-03-21T11:41:01.620Z,1.40
2023-03-21T11:43:32.156Z,1.73
2023-03-21T11:46:02.318Z,1.17
2023-03-21T11:48:35.849Z,1.23
2023-03-21T11:51:06.237Z,1.63
2023-03-21T11:53:38.366Z,1.40
2023-03-21T11:56:12.265Z,1.50
2023-03-21T11:58:46.394Z,1.93
2023-03-21T12:01:19.106Z,1.33
2023-03-21T12:03:50.345Z,1.40
2023-03-21T12:06:24.200Z,0.93
2023-03-21T12:08:56.272Z,1.53
2023-03-21T12:11:30.877Z,1.00
2023-03-21T12:14:03.608Z,1.37
2023-03-21T12:16:43.444Z,1.30
2023-03-21T12:19:40.055Z,1.10
2023-03-21T12:22:13.332Z,1.73
2023-03-21T12:24:43.550Z,0.80
2023-03-21T12:27:18.156Z,0.70
2023-03-21T12:29:55.438Z,1.00
2023-03-21T12:32:33.842Z,1.00
2023-03-21T12:38:08.208Z,0.93
2023-03-21T12:40:47.845Z,0.83
2023-03-21T12:43:29.234Z,1.00
2023-03-21T12:46:01.072Z,1.07
2023-03-21T12:48:40.763Z,0.97
2023-03-21T12:51:13.519Z,1.20
2023-03-21T12:53:53.677Z,0.80
2023-03-21T12:56:24.529Z,1.10
2023-03-21T12:58:54.711Z,0.90
2023-03-21T13:01:24.280Z,1.53
2023-03-21T13:03:55.895Z,0.90
2023-03-21T13:06:25.792Z,0.60
2023-03-21T13:08:58.623Z,0.90
2023-03-21T13:11:29.243Z,0.60
2023-03-21T13:14:00.660Z,0.70
2023-03-21T13:16:30.282Z,0.87
2023-03-21T13:19:04.778Z,0.70
2023-03-21T13:21:45.780Z,0.70
2023-03-21T13:24:26.245Z,1.00
2023-03-21T13:27:00.727Z,1.07
2023-03-21T13:29:31.155Z,0.77
2023-03-21T13:32:07.647Z,0.80
2023-03-21T13:34:36.205Z,0.60
2023-03-21T13:37:04.777Z,1.17
2023-03-21T13:39:34.940Z,0.80
2023-03-21T13:42:05.853Z,1.23
2023-03-21T13:44:41.168Z,1.10
2023-03-21T13:47:25.343Z,1.10
2023-03-21T13:50:08.802Z,1.10
2023-03-21T13:52:41.678Z,1.53
2023-03-21T13:55:17.031Z,0.90
2023-03-21T13:57:48.587Z,1.33
2023-03-21T14:00:19.296Z,0.73
2023-03-21T14:02:56.094Z,0.90
2023-03-21T14:05:25.822Z,0.90
2023-03-21T14:08:02.271Z,1.10
2023-03-21T14:10:37.941Z,1.00
2023-03-21T14:13:06.945Z,0.97
2023-03-21T14:15:43.721Z,0.83
2023-03-21T14:18:35.344Z,0.47
2023-03-21T14:21:09.412Z,0.87
2023-03-21T14:23:40.863Z,0.83
2023-03-21T14:26:11.467Z,1.00
2023-03-21T14:28:41.114Z,1.10
2023-03-21T14:31:09.472Z,1.27
2023-03-21T14:33:39.532Z,1.23
2023-03-21T14:36:09.704Z,1.10
2023-03-21T14:38:39.184Z,0.80
2023-03-21T14:41:07.815Z,0.90
2023-03-21T14:43:37.564Z,0.70
2023-03-21T14:46:06.119Z,0.83
2023-03-21T14:48:35.709Z,0.90
2023-03-21T14:51:04.895Z,0.77
2023-03-21T14:53:34.617Z,0.90
2023-03-21T14:56:03.526Z,0.73
2023-03-21T14:58:32.610Z,0.60
2023-03-21T15:01:04.693Z,0.70
2023-03-21T15:03:33.592Z,1.00
2023-03-21T15:06:02.490Z,0.80
2023-03-21T15:08:33.325Z,0.80
2023-03-21T15:11:09.896Z,0.90
2023-03-21T15:13:39.253Z,0.80
2023-03-21T15:16:09.925Z,0.70
2023-03-21T15:18:39.467Z,0.60
2023-03-21T15:21:18.132Z,1.13
2023-03-21T15:23:47.963Z,1.10
2023-03-21T15:26:17.333Z,1.10
2023-03-21T15:28:47.184Z,1.00
2023-03-21T15:31:21.185Z,1.07
2023-03-21T15:33:50.062Z,1.60
2023-03-21T15:36:21.412Z,1.87
2023-03-21T15:38:50.485Z,0.83
2023-03-21T15:41:25.758Z,1.40
2023-03-21T15:43:57.042Z,1.13
2023-03-21T15:46:36.199Z,1.50
2023-03-21T15:49:11.475Z,1.30
2023-03-21T15:51:40.093Z,1.60
2023-03-21T15:54:15.156Z,1.10
2023-03-21T15:56:45.933Z,1.03
2023-03-21T15:59:18.200Z,1.57
2023-03-21T16:01:49.745Z,1.53
2023-03-21T16:04:18.976Z,1.40
2023-03-21T16:06:54.089Z,1.30
2023-03-21T16:09:23.624Z,1.13
2023-03-21T16:11:53.139Z,1.50
2023-03-21T16:14:22.448Z,1.33
2023-03-21T16:16:53.011Z,1.00
2023-03-21T16:19:21.521Z,1.17
2023-03-21T16:21:55.206Z,1.30
2023-03-21T16:24:23.816Z,1.63
2023-03-21T16:26:53.384Z,1.37
2023-03-21T16:29:22.554Z,1.40
2023-03-21T16:31:52.624Z,1.03
2023-03-21T16:34:21.101Z,0.90
2023-03-21T16:36:49.519Z,1.37
2023-03-21T16:39:19.274Z,1.50
2023-03-21T16:41:47.982Z,1.33
2023-03-21T16:44:16.476Z,1.43
2023-03-21T16:46:45.137Z,1.30
2023-03-21T16:49:20.919Z,2.13
2023-03-21T16:51:49.483Z,1.37
2023-03-21T16:54:20.410Z,1.53
2023-03-21T16:56:49.651Z,1.70
2023-03-21T16:59:18.304Z,1.33
2023-03-21T17:01:48.357Z,1.20
2023-03-21T17:04:17.416Z,1.07
2023-03-21T17:06:49.274Z,1.40
2023-03-21T17:09:18.355Z,1.63
2023-03-21T17:11:46.776Z,1.90
2023-03-21T17:14:16.827Z,1.40
2023-03-21T17:16:45.451Z,1.53
2023-03-21T17:19:14.985Z,1.30
2023-03-21T17:21:43.427Z,1.90
2023-03-21T17:24:13.375Z,1.50
2023-03-21T17:26:42.047Z,2.43
2023-03-21T17:29:17.917Z,1.50
2023-03-21T17:31:52.984Z,1.77
2023-03-21T17:34:21.915Z,1.30
2023-03-21T17:36:50.519Z,1.23
2023-03-21T17:39:21.508Z,1.80
2023-03-21T17:41:50.231Z,1.53
2023-03-21T17:44:18.628Z,1.70
2023-03-21T17:46:49.521Z,1.50
2023-03-21T17:49:23.015Z,1.20
2023-03-21T17:51:52.288Z,1.43
2023-03-21T17:54:23.188Z,1.60
2023-03-21T17:56:51.846Z,1.83
2023-03-21T17:59:20.379Z,1.87
2023-03-21T18:01:48.981Z,1.67
2023-03-21T18:04:17.390Z,1.83
2023-03-21T18:06:45.864Z,1.90
2023-03-21T18:09:20.210Z,1.90
2023-03-21T18:11:51.294Z,1.67
2023-03-21T18:14:27.932Z,1.27
2023-03-21T18:16:57.570Z,2.20
2023-03-21T18:19:28.308Z,1.90
2023-03-21T18:21:56.721Z,1.70
2023-03-21T18:24:33.214Z,1.70
2023-03-21T18:27:08.212Z,1.30
2023-03-21T18:32:26.269Z,1.70
2023-03-21T18:34:54.750Z,1.57
2023-03-21T18:37:23.085Z,1.67
2023-03-21T18:39:51.750Z,1.60
2023-03-21T18:42:22.947Z,1.57
2023-03-21T18:44:56.551Z,1.90
2023-03-21T18:47:25.304Z,1.70
2023-03-21T18:52:42.256Z,2.97
2023-03-21T18:55:11.911Z,1.30
2023-03-21T18:57:42.922Z,1.50
2023-03-21T19:00:13.813Z,1.20
2023-03-21T19:02:46.779Z,1.27
2023-03-21T19:05:18.864Z,1.00
2023-03-21T19:07:48.195Z,1.33
2023-03-21T19:10:19.342Z,0.90
2023-03-21T19:12:50.019Z,0.93
2023-03-21T19:15:19.813Z,1.33
2023-03-21T19:20:38.001Z,1.30
2023-03-21T19:23:09.446Z,1.30
2023-03-21T19:25:38.897Z,1.07
2023-03-21T19:28:09.781Z,0.90
2023-03-21T19:30:38.648Z,1.03
2023-03-21T19:33:10.391Z,3.43
2023-03-21T19:35:41.222Z,3.03
2023-03-21T19:38:11.884Z,1.50
2023-03-21T19:40:41.388Z,1.17
2023-03-21T19:43:32.096Z,1.27
2023-03-21T19:46:02.186Z,1.17
2023-03-21T19:48:30.907Z,1.30
2023-03-21T19:51:26.871Z,1.63
2023-03-21T19:53:51.998Z,1.53
2023-03-21T19:56:23.775Z,1.13
2023-03-21T19:58:56.463Z,1.63
2023-03-21T20:01:25.501Z,1.00
2023-03-21T20:03:54.075Z,0.93
2023-03-21T20:06:23.972Z,1.20
2023-03-21T20:11:41.856Z,1.70
2023-03-21T20:14:11.673Z,2.17
2023-03-21T20:16:43.264Z,1.63
2023-03-21T20:19:15.939Z,1.30
2023-03-21T20:21:58.821Z,1.83
2023-03-21T20:24:28.337Z,1.50
2023-03-21T20:26:57.370Z,1.87
2023-03-21T20:32:19.896Z,1.83
2023-03-21T20:34:48.897Z,1.63
2023-03-21T20:37:17.456Z,2.03
2023-03-21T20:39:47.084Z,1.43
2023-03-21T20:42:15.492Z,1.20
2023-03-21T20:44:57.811Z,1.30
2023-03-21T20:47:27.764Z,1.63
2023-03-21T20:49:58.161Z,1.40
2023-03-21T20:52:57.437Z,1.37
2023-03-21T20:55:15.028Z,1.43
2023-03-21T20:57:44.324Z,1.77
2023-03-21T21:00:17.198Z,2.13
2023-03-21T21:02:46.521Z,1.73
2023-03-21T21:05:25.801Z,2.50
2023-03-21T21:07:56.816Z,1.77
2023-03-21T21:10:26.297Z,1.30
2023-03-21T21:12:54.967Z,2.57
2023-03-21T21:15:24.981Z,1.70
2023-03-21T21:18:06.159Z,1.33
2023-03-21T21:20:35.460Z,1.53
2023-03-21T21:23:09.555Z,2.13
2023-03-21T21:25:39.354Z,1.70
2023-03-21T21:28:09.635Z,2.17
2023-03-21T21:30:41.464Z,2.20
2023-03-21T21:33:10.077Z,1.00
2023-03-21T21:35:38.579Z,1.87
2023-03-21T21:38:07.231Z,2.23
2023-03-21T21:40:36.315Z,1.90
2023-03-21T21:43:04.978Z,2.10
2023-03-21T21:45:33.821Z,1.63
2023-03-21T21:48:03.987Z,1.70
2023-03-21T21:50:32.620Z,2.17
2023-03-21T21:53:03.704Z,1.70
2023-03-21T21:55:32.627Z,2.27
2023-03-21T21:58:01.389Z,2.43
2023-03-21T22:00:31.394Z,2.43
2023-03-21T22:03:02.723Z,2.30
2023-03-21T22:05:33.158Z,1.97
2023-03-21T22:08:01.540Z,2.30
2023-03-21T22:10:30.033Z,2.07
2023-03-21T22:12:58.429Z,2.10
2023-03-21T22:15:26.839Z,2.33
2023-03-21T22:17:55.918Z,2.27
2023-03-21T22:20:24.280Z,2.50
2023-03-21T22:22:56.677Z,2.83
2023-03-21T22:25:25.747Z,2.60
2023-03-21T22:27:54.322Z,3.47
2023-03-21T22:30:23.007Z,3.47
2023-03-21T22:33:06.313Z,2.90
2023-03-21T22:35:37.026Z,2.50
2023-03-21T22:38:06.926Z,2.13
2023-03-21T22:40:35.333Z,2.33
2023-03-21T22:43:03.866Z,2.20
2023-03-21T22:45:32.790Z,3.03
2023-03-21T22:48:01.341Z,2.33
2023-03-21T22:50:30.175Z,2.87
2023-03-21T22:52:58.553Z,1.97
2023-03-21T22:55:28.419Z,1.87
2023-03-21T22:57:56.877Z,1.83
2023-03-21T23:00:25.449Z,2.60
2023-03-21T23:02:54.111Z,2.47
2023-03-21T23:05:22.480Z,2.53
2023-03-21T23:07:51.792Z,1.97
2023-03-21T23:10:20.428Z,3.00
2023-03-21T23:12:51.632Z,1.80
2023-03-21T23:15:20.265Z,2.03
2023-03-21T23:17:48.691Z,2.50
2023-03-21T23:20:17.305Z,2.00
2023-03-21T23:22:46.075Z,2.70
2023-03-21T23:25:14.596Z,2.53
2023-03-21T23:27:44.658Z,2.00
2023-03-21T23:30:14.716Z,1.70
2023-03-21T23:32:43.059Z,1.90
2023-03-21T23:35:11.879Z,1.90
2023-03-21T23:37:42.394Z,1.83
2023-03-21T23:40:12.627Z,2.40
2023-03-21T23:42:41.158Z,1.70
2023-03-21T23:45:09.955Z,2.13
2023-03-21T23:47:39.904Z,2.37
2023-03-21T23:50:09.905Z,2.50
2023-03-21T23:52:41.433Z,2.40
2023-03-21T23:55:10.821Z,2.73
2023-03-21T23:57:41.709Z,2.20
